createdAt,value
2022-08-18T00:01:09.507Z,20.96
2022-08-18T00:03:57.161Z,20.91
2022-08-18T00:06:27.984Z,20.90
2022-08-18T00:08:57.686Z,20.88
2022-08-18T00:11:25.543Z,20.83
2022-08-18T00:13:53.412Z,20.76
2022-08-18T00:16:22.690Z,20.82
2022-08-18T00:18:50.560Z,20.80
2022-08-18T00:21:18.811Z,20.78
2022-08-18T00:23:46.604Z,20.70
2022-08-18T00:26:14.535Z,20.74
2022-08-18T00:28:42.511Z,20.78
2022-08-18T00:31:10.753Z,20.73
2022-08-18T00:33:39.987Z,20.76
2022-08-18T00:36:07.970Z,20.89
2022-08-18T00:38:35.750Z,21.06
2022-08-18T00:41:03.613Z,21.16
2022-08-18T00:43:37.659Z,21.13
2022-08-18T00:46:08.279Z,21.13
2022-08-18T00:48:36.990Z,21.14
2022-08-18T00:51:12.677Z,21.16
2022-08-18T00:53:45.730Z,21.06
2022-08-18T00:56:17.564Z,21.08
2022-08-18T00:58:49.667Z,21.16
2022-08-18T01:01:20.510Z,21.19
2022-08-18T01:03:53.859Z,21.09
2022-08-18T01:06:29.581Z,21.08
2022-08-18T01:08:57.414Z,21.04
2022-08-18T01:11:25.973Z,21.09
2022-08-18T01:13:54.911Z,21.14
2022-08-18T01:16:53.171Z,21.24
2022-08-18T01:19:45.110Z,21.45
2022-08-18T01:22:45.656Z,21.60
2022-08-18T01:25:34.297Z,21.63
2022-08-18T01:28:03.376Z,21.59
2022-08-18T01:30:32.798Z,21.55
2022-08-18T01:33:00.690Z,21.47
2022-08-18T01:35:37.117Z,21.67
2022-08-18T01:38:13.432Z,21.72
2022-08-18T01:41:11.011Z,21.78
2022-08-18T01:43:31.191Z,21.71
2022-08-18T01:46:01.133Z,21.67
2022-08-18T01:48:33.026Z,21.60
2022-08-18T01:51:01.594Z,21.49
2022-08-18T01:53:29.421Z,21.34
2022-08-18T01:55:58.623Z,21.33
2022-08-18T01:58:31.588Z,21.25
2022-08-18T02:01:01.771Z,21.33
2022-08-18T02:03:34.199Z,21.21
2022-08-18T02:06:03.861Z,21.32
2022-08-18T02:08:32.946Z,21.36
2022-08-18T02:11:03.353Z,21.38
2022-08-18T02:13:31.821Z,21.36
2022-08-18T02:15:59.780Z,21.46
2022-08-18T02:18:32.457Z,21.38
2022-08-18T02:21:19.297Z,21.34
2022-08-18T02:23:53.271Z,21.19
2022-08-18T02:26:24.303Z,21.12
2022-08-18T02:28:52.702Z,21.08
2022-08-18T02:31:23.257Z,21.03
2022-08-18T02:33:52.454Z,20.98
2022-08-18T02:36:21.320Z,20.86
2022-08-18T02:38:56.641Z,20.84
2022-08-18T02:41:30.156Z,20.94
2022-08-18T02:43:58.933Z,21.09
2022-08-18T02:46:29.952Z,21.24
2022-08-18T02:48:58.278Z,21.04
2022-08-18T02:51:26.205Z,21.00
2022-08-18T02:53:54.637Z,20.91
2022-08-18T02:56:40.019Z,20.78
2022-08-18T02:59:13.497Z,20.62
2022-08-18T03:01:45.475Z,20.54
2022-08-18T03:04:16.569Z,20.47
2022-08-18T03:06:45.851Z,20.52
2022-08-18T03:09:15.367Z,20.50
2022-08-18T03:11:44.068Z,20.50
2022-08-18T03:14:14.642Z,20.53
2022-08-18T03:16:53.539Z,20.50
2022-08-18T03:19:23.181Z,20.59
2022-08-18T03:21:51.337Z,20.62
2022-08-18T03:24:22.985Z,20.81
2022-08-18T03:26:52.976Z,20.85
2022-08-18T03:29:22.405Z,20.91
2022-08-18T03:31:51.281Z,21.07
2022-08-18T03:34:21.373Z,21.10
2022-08-18T03:36:50.380Z,20.97
2022-08-18T03:39:19.730Z,21.07
2022-08-18T03:41:59.863Z,21.10
2022-08-18T03:44:36.513Z,21.24
2022-08-18T03:47:05.739Z,21.25
2022-08-18T03:49:34.741Z,21.24
2022-08-18T03:52:03.117Z,21.39
2022-08-18T03:54:33.590Z,21.46
2022-08-18T03:57:01.690Z,21.39
2022-08-18T03:59:31.885Z,21.23
2022-08-18T04:02:00.142Z,21.15
2022-08-18T04:04:29.626Z,21.01
2022-08-18T04:06:59.340Z,20.99
2022-08-18T04:09:29.911Z,20.93
2022-08-18T04:11:58.675Z,20.95
2022-08-18T04:14:29.724Z,21.07
2022-08-18T04:16:59.495Z,20.97
2022-08-18T04:19:28.109Z,20.94
2022-08-18T04:21:57.823Z,20.86
2022-08-18T04:24:31.146Z,20.86
2022-08-18T04:27:01.786Z,20.81
2022-08-18T04:29:30.177Z,20.85
2022-08-18T04:32:04.829Z,20.80
2022-08-18T04:34:34.020Z,20.79
2022-08-18T04:37:02.442Z,20.82
2022-08-18T04:39:31.361Z,20.86
2022-08-18T04:42:01.653Z,20.97
2022-08-18T04:44:29.490Z,21.02
2022-08-18T04:46:57.347Z,21.01
2022-08-18T04:49:27.070Z,21.01
2022-08-18T04:52:30.727Z,21.00
2022-08-18T04:55:03.009Z,21.03
2022-08-18T04:57:33.081Z,21.10
2022-08-18T05:00:03.202Z,21.13
2022-08-18T05:02:33.007Z,21.15
2022-08-18T05:05:03.538Z,21.20
2022-08-18T05:07:31.606Z,21.31
2022-08-18T05:09:59.447Z,21.44
2022-08-18T05:12:27.251Z,21.49
2022-08-18T05:14:56.899Z,21.49
2022-08-18T05:17:30.030Z,21.56
2022-08-18T05:19:59.890Z,21.55
2022-08-18T05:22:31.169Z,21.69
2022-08-18T05:25:00.073Z,21.67
2022-08-18T05:27:33.252Z,21.60
2022-08-18T05:30:01.131Z,21.74
2022-08-18T05:32:47.314Z,21.74
2022-08-18T05:35:23.101Z,21.69
2022-08-18T05:38:11.299Z,21.67
2022-08-18T05:40:39.433Z,21.66
2022-08-18T05:43:09.509Z,21.69
2022-08-18T05:45:37.329Z,21.65
2022-08-18T05:48:05.360Z,21.69
2022-08-18T05:50:36.445Z,21.59
2022-08-18T05:53:13.720Z,21.58
2022-08-18T05:56:10.496Z,21.57
2022-08-18T05:58:42.696Z,21.65
2022-08-18T06:01:17.948Z,21.60
2022-08-18T06:03:51.015Z,21.57
2022-08-18T06:06:22.318Z,21.58
2022-08-18T06:08:59.945Z,21.62
2022-08-18T06:11:28.290Z,21.58
2022-08-18T06:13:59.956Z,21.60
2022-08-18T06:16:48.903Z,21.56
2022-08-18T06:19:29.057Z,21.52
2022-08-18T06:22:06.629Z,21.51
2022-08-18T06:24:39.914Z,21.47
2022-08-18T06:27:15.098Z,21.56
2022-08-18T06:29:54.270Z,21.46
2022-08-18T06:32:32.339Z,21.62
2022-08-18T06:35:13.550Z,21.65
2022-08-18T06:38:00.541Z,21.38
2022-08-18T06:40:29.883Z,21.37
2022-08-18T06:42:59.861Z,21.11
2022-08-18T06:45:36.659Z,21.07
2022-08-18T06:48:15.685Z,21.13
2022-08-18T06:50:51.665Z,21.16
2022-08-18T06:53:27.900Z,21.14
2022-08-18T06:55:57.502Z,21.21
2022-08-18T06:58:30.424Z,21.35
2022-08-18T07:01:02.467Z,21.37
2022-08-18T07:03:44.839Z,21.29
2022-08-18T07:06:26.826Z,21.29
2022-08-18T07:08:56.981Z,21.22
2022-08-18T07:11:28.812Z,21.18
2022-08-18T07:14:15.558Z,21.19
2022-08-18T07:16:58.350Z,21.24
2022-08-18T07:19:30.917Z,21.26
2022-08-18T07:22:04.567Z,21.13
2022-08-18T07:24:37.399Z,21.11
2022-08-18T07:27:10.797Z,21.23
2022-08-18T07:29:40.427Z,21.37
2022-08-18T07:32:21.034Z,21.37
2022-08-18T07:34:55.100Z,21.28
2022-08-18T07:37:29.275Z,21.31
2022-08-18T07:40:04.060Z,21.32
2022-08-18T07:43:00.587Z,21.25
2022-08-18T07:45:32.389Z,21.28
2022-08-18T07:48:27.507Z,21.58
2022-08-18T07:51:06.650Z,21.58
2022-08-18T07:53:54.790Z,21.52
2022-08-18T07:56:38.196Z,21.45
2022-08-18T07:59:17.356Z,21.49
2022-08-18T08:01:54.103Z,21.45
2022-08-18T08:04:31.550Z,21.42
2022-08-18T08:07:24.080Z,21.51
2022-08-18T08:10:02.493Z,21.54
2022-08-18T08:12:43.520Z,21.55
2022-08-18T08:15:26.855Z,21.52
2022-08-18T08:18:02.947Z,21.60
2022-08-18T08:20:35.730Z,21.54
2022-08-18T08:23:15.178Z,21.77
2022-08-18T08:25:56.921Z,21.60
2022-08-18T08:28:39.864Z,21.48
2022-08-18T08:31:36.144Z,21.55
2022-08-18T08:34:08.326Z,21.50
2022-08-18T08:36:40.986Z,21.69
2022-08-18T08:39:15.381Z,22.00
2022-08-18T08:41:49.144Z,22.09
2022-08-18T08:44:23.214Z,22.20
2022-08-18T08:46:57.756Z,22.20
2022-08-18T08:49:34.551Z,22.34
2022-08-18T08:52:06.489Z,22.48
2022-08-18T08:54:44.260Z,22.56
2022-08-18T08:57:15.623Z,22.46
2022-08-18T08:59:47.659Z,22.77
2022-08-18T09:02:47.961Z,22.67
2022-08-18T09:05:20.970Z,22.79
2022-08-18T09:08:18.763Z,22.55
2022-08-18T09:11:19.043Z,22.46
2022-08-18T09:14:17.501Z,22.73
2022-08-18T09:16:55.704Z,23.36
2022-08-18T09:19:45.733Z,23.72
2022-08-18T09:22:27.313Z,23.07
2022-08-18T09:24:55.904Z,22.91
2022-08-18T09:28:07.232Z,22.52
2022-08-18T09:30:42.792Z,22.96
2022-08-18T09:33:21.610Z,23.55
2022-08-18T09:36:18.483Z,23.40
2022-08-18T09:39:11.103Z,23.31
2022-08-18T09:45:00.219Z,24.11
2022-08-18T09:48:00.232Z,23.94
2022-08-18T09:50:57.983Z,23.95
2022-08-18T09:53:56.672Z,24.09
2022-08-18T09:56:59.256Z,23.92
2022-08-18T10:00:00.018Z,24.11
2022-08-18T10:03:13.493Z,24.39
2022-08-18T10:06:01.368Z,24.83
2022-08-18T10:08:51.302Z,24.87
2022-08-18T10:11:29.075Z,24.64
2022-08-18T10:14:13.626Z,24.30
2022-08-18T10:17:21.363Z,24.16
2022-08-18T10:19:55.576Z,24.82
2022-08-18T10:22:43.372Z,25.12
2022-08-18T10:25:22.878Z,24.57
2022-08-18T10:27:55.147Z,24.27
2022-08-18T10:31:06.416Z,24.29
2022-08-18T10:34:16.603Z,24.62
2022-08-18T10:36:50.077Z,24.93
2022-08-18T10:39:22.008Z,24.82
2022-08-18T10:41:58.051Z,24.81
2022-08-18T10:44:29.539Z,24.36
2022-08-18T10:47:01.215Z,24.66
2022-08-18T10:49:33.161Z,24.75
2022-08-18T10:52:45.892Z,24.92
2022-08-18T10:55:47.937Z,24.92
2022-08-18T10:58:40.244Z,24.43
2022-08-18T11:01:17.932Z,24.58
2022-08-18T11:04:13.755Z,24.30
2022-08-18T11:06:45.007Z,24.64
2022-08-18T11:09:13.358Z,24.93
2022-08-18T11:11:53.005Z,24.64
2022-08-18T11:20:55.001Z,24.17
2022-08-18T11:23:23.136Z,23.92
2022-08-18T11:25:51.890Z,23.70
2022-08-18T11:28:30.437Z,23.48
2022-08-18T11:31:00.542Z,23.72
2022-08-18T11:33:28.965Z,23.95
2022-08-18T11:36:01.765Z,24.15
2022-08-18T11:38:31.622Z,24.32
2022-08-18T11:41:17.282Z,24.69
2022-08-18T11:43:50.727Z,25.42
2022-08-18T11:55:24.488Z,26.26
2022-08-18T11:57:58.940Z,26.78
2022-08-18T12:01:01.429Z,26.75
2022-08-18T12:03:38.485Z,26.98
2022-08-18T12:06:26.714Z,26.69
2022-08-18T12:09:00.447Z,27.21
2022-08-18T12:11:31.606Z,27.40
2022-08-18T12:14:31.964Z,27.93
2022-08-18T12:16:54.154Z,28.25
2022-08-18T12:19:24.257Z,27.88
2022-08-18T12:21:54.826Z,28.06
2022-08-18T12:24:26.249Z,27.70
2022-08-18T12:27:02.202Z,27.47
2022-08-18T12:29:48.806Z,27.66
2022-08-18T12:32:41.307Z,27.93
2022-08-18T12:35:11.354Z,28.50
2022-08-18T12:37:58.805Z,28.14
2022-08-18T12:40:27.705Z,28.75
2022-08-18T12:42:55.722Z,29.02
2022-08-18T12:45:25.808Z,28.69
2022-08-18T12:47:56.199Z,28.05
2022-08-18T12:50:31.392Z,27.81
2022-08-18T12:53:01.891Z,27.47
2022-08-18T12:55:34.996Z,27.88
2022-08-18T12:58:05.958Z,27.85
2022-08-18T13:00:34.797Z,27.48
2022-08-18T13:03:05.621Z,26.87
2022-08-18T13:05:33.504Z,27.04
2022-08-18T13:08:04.893Z,27.47
2022-08-18T13:10:42.807Z,27.66
2022-08-18T13:13:14.819Z,27.64
2022-08-18T13:15:44.536Z,28.19
2022-08-18T13:18:28.854Z,28.36
2022-08-18T13:20:58.470Z,28.45
2022-08-18T13:23:27.243Z,27.84
2022-08-18T13:25:59.442Z,27.96
2022-08-18T13:28:35.624Z,28.58
2022-08-18T13:31:05.461Z,28.78
2022-08-18T13:33:57.166Z,28.65
2022-08-18T13:36:23.583Z,28.64
2022-08-18T13:38:54.496Z,28.66
2022-08-18T13:43:52.816Z,29.39
2022-08-18T13:46:24.354Z,29.21
2022-08-18T13:49:03.221Z,28.96
2022-08-18T13:51:31.715Z,29.47
2022-08-18T13:54:18.708Z,29.31
2022-08-18T13:56:51.525Z,28.91
2022-08-18T13:59:21.582Z,29.31
2022-08-18T14:01:52.534Z,30.62
2022-08-18T14:04:27.826Z,32.41
2022-08-18T14:06:59.718Z,32.83
2022-08-18T14:09:36.913Z,35.53
2022-08-18T14:12:15.745Z,35.71
2022-08-18T14:14:52.061Z,32.96
2022-08-18T14:17:22.612Z,31.77
2022-08-18T14:20:15.222Z,31.90
2022-08-18T14:23:09.122Z,30.67
2022-08-18T14:25:54.398Z,30.96
2022-08-18T14:28:24.680Z,31.40
2022-08-18T14:30:54.531Z,31.93
2022-08-18T14:33:27.341Z,33.85
2022-08-18T14:36:06.977Z,34.92
2022-08-18T14:38:38.194Z,33.07
2022-08-18T14:41:10.838Z,32.07
2022-08-18T14:43:51.566Z,32.41
2022-08-18T14:46:32.688Z,33.54
2022-08-18T14:49:03.969Z,33.42
2022-08-18T14:51:33.857Z,33.66
2022-08-18T14:54:02.141Z,34.40
2022-08-18T14:56:33.373Z,34.89
2022-08-18T14:59:08.091Z,33.88
2022-08-18T15:01:42.855Z,33.89
2022-08-18T15:04:18.815Z,33.67
2022-08-18T15:06:56.316Z,32.22
2022-08-18T15:09:26.866Z,31.41
2022-08-18T15:11:58.051Z,29.95
2022-08-18T15:14:33.125Z,30.12
2022-08-18T15:17:02.483Z,29.47
2022-08-18T15:19:58.854Z,29.36
2022-08-18T15:22:48.960Z,28.54
2022-08-18T15:25:42.706Z,28.98
2022-08-18T15:28:16.135Z,29.12
2022-08-18T15:30:45.565Z,28.98
2022-08-18T15:33:23.641Z,28.55
2022-08-18T15:35:53.527Z,28.79
2022-08-18T15:38:24.706Z,28.33
2022-08-18T15:40:58.051Z,28.32
2022-08-18T15:43:29.082Z,28.02
2022-08-18T15:46:00.508Z,27.74
2022-08-18T15:48:31.673Z,27.69
2022-08-18T15:51:08.019Z,27.44
2022-08-18T15:53:44.977Z,27.47
2022-08-18T15:56:15.943Z,27.51
2022-08-18T15:58:49.169Z,27.44
2022-08-18T16:01:30.048Z,27.61
2022-08-18T16:03:59.675Z,27.20
2022-08-18T16:06:32.499Z,27.38
2022-08-18T16:09:03.134Z,27.62
2022-08-18T16:11:31.248Z,27.59
2022-08-18T16:14:00.006Z,27.81
2022-08-18T16:16:35.712Z,28.28
2022-08-18T16:19:05.622Z,27.90
2022-08-18T16:21:33.737Z,27.52
2022-08-18T16:24:03.941Z,27.33
2022-08-18T16:26:31.869Z,27.60
2022-08-18T16:29:01.777Z,27.63
2022-08-18T16:31:30.283Z,27.45
2022-08-18T16:33:58.886Z,27.43
2022-08-18T16:36:27.117Z,27.31
2022-08-18T16:38:58.371Z,27.39
2022-08-18T16:41:27.970Z,27.38
2022-08-18T16:43:56.318Z,27.38
2022-08-18T16:46:27.090Z,27.28
2022-08-18T16:48:55.497Z,27.29
2022-08-18T16:51:25.879Z,27.16
2022-08-18T16:53:54.479Z,26.91
2022-08-18T16:56:24.686Z,26.98
2022-08-18T16:59:11.205Z,26.91
2022-08-18T17:01:57.129Z,26.81
2022-08-18T17:04:29.071Z,26.68
2022-08-18T17:06:58.299Z,26.39
2022-08-18T17:09:26.431Z,26.41
2022-08-18T17:11:54.611Z,26.24
2022-08-18T17:14:26.223Z,26.14
2022-08-18T17:16:55.133Z,26.21
2022-08-18T17:19:24.802Z,26.16
2022-08-18T17:21:53.611Z,26.12
2022-08-18T17:24:31.055Z,25.99
2022-08-18T17:27:12.031Z,25.92
2022-08-18T17:30:01.733Z,25.92
2022-08-18T17:32:39.186Z,25.81
2022-08-18T17:35:13.066Z,25.69
2022-08-18T17:37:49.140Z,25.70
2022-08-18T17:40:22.213Z,25.81
2022-08-18T17:42:51.740Z,25.70
2022-08-18T17:45:24.873Z,25.69
2022-08-18T17:48:01.145Z,25.57
2022-08-18T17:50:52.151Z,25.50
2022-08-18T17:53:21.373Z,25.47
2022-08-18T17:55:55.031Z,25.43
2022-08-18T17:58:38.020Z,25.31
2022-08-18T18:01:08.238Z,25.29
2022-08-18T18:03:36.564Z,25.13
2022-08-18T18:06:12.158Z,25.19
2022-08-18T18:08:55.926Z,25.04
2022-08-18T18:11:28.670Z,25.13
2022-08-18T18:13:56.763Z,25.09
2022-08-18T18:16:35.000Z,25.21
2022-08-18T18:19:06.068Z,25.11
2022-08-18T18:21:55.301Z,25.06
2022-08-18T18:24:31.544Z,24.89
2022-08-18T18:26:59.718Z,24.91
2022-08-18T18:29:34.480Z,24.88
2022-08-18T18:32:24.026Z,24.66
2022-08-18T18:35:09.535Z,24.60
2022-08-18T18:37:45.203Z,24.54
2022-08-18T18:40:32.557Z,24.52
2022-08-18T18:43:22.905Z,24.59
2022-08-18T18:46:30.259Z,24.59
2022-08-18T18:49:10.028Z,24.62
2022-08-18T18:51:50.772Z,24.59
2022-08-18T18:54:37.884Z,24.50
2022-08-18T18:57:12.712Z,24.58
2022-08-18T18:59:49.881Z,24.43
2022-08-18T19:02:33.947Z,24.37
2022-08-18T19:05:17.989Z,24.26
2022-08-18T19:08:00.635Z,24.37
2022-08-18T19:10:35.909Z,24.18
2022-08-18T19:13:10.222Z,24.06
2022-08-18T19:15:41.463Z,24.00
2022-08-18T19:18:26.145Z,23.97
2022-08-18T19:22:02.096Z,23.95
2022-08-18T19:23:56.420Z,23.86
2022-08-18T19:26:31.303Z,23.75
2022-08-18T19:29:12.652Z,23.63
2022-08-18T19:31:47.217Z,23.57
2022-08-18T19:34:19.992Z,23.56
2022-08-18T19:36:57.647Z,23.60
2022-08-18T19:39:32.497Z,23.56
2022-08-18T19:42:06.014Z,23.49
2022-08-18T19:44:50.884Z,23.52
2022-08-18T19:47:28.061Z,23.58
2022-08-18T19:50:04.788Z,23.51
2022-08-18T19:52:50.058Z,23.42
2022-08-18T19:55:32.870Z,23.15
2022-08-18T19:58:31.936Z,23.46
2022-08-18T20:01:03.733Z,23.54
2022-08-18T20:03:59.722Z,23.57
2022-08-18T20:06:55.827Z,23.56
2022-08-18T20:09:50.932Z,23.43
2022-08-18T20:12:37.935Z,23.45
2022-08-18T20:15:13.763Z,23.48
2022-08-18T20:18:07.806Z,23.46
2022-08-18T20:20:38.936Z,23.56
2022-08-18T20:23:32.280Z,23.58
2022-08-18T20:26:01.963Z,23.66
2022-08-18T20:28:40.115Z,23.68
2022-08-18T20:31:13.601Z,23.45
2022-08-18T20:33:47.006Z,23.35
2022-08-18T20:36:25.424Z,23.32
2022-08-18T20:38:55.621Z,23.16
2022-08-18T20:41:50.515Z,23.39
2022-08-18T20:44:43.070Z,23.35
2022-08-18T20:47:44.161Z,23.16
2022-08-18T20:50:51.078Z,23.30
2022-08-18T20:53:49.925Z,23.27
2022-08-18T20:56:32.178Z,23.33
2022-08-18T20:59:10.018Z,23.13
2022-08-18T21:01:38.937Z,23.15
2022-08-18T21:04:07.185Z,23.02
2022-08-18T21:06:42.022Z,23.05
2022-08-18T21:09:10.491Z,23.16
2022-08-18T21:11:42.951Z,23.13
2022-08-18T21:14:12.905Z,23.02
2022-08-18T21:16:44.909Z,22.94
2022-08-18T21:19:20.306Z,22.97
2022-08-18T21:21:51.407Z,22.94
2022-08-18T21:24:29.124Z,23.03
2022-08-18T21:26:59.702Z,22.97
2022-08-18T21:29:44.211Z,22.87
2022-08-18T21:32:20.638Z,22.75
2022-08-18T21:34:51.362Z,22.69
2022-08-18T21:37:20.997Z,22.64
2022-08-18T21:39:52.459Z,22.60
2022-08-18T21:42:25.972Z,22.55
2022-08-18T21:45:00.653Z,22.54
2022-08-18T21:47:32.623Z,22.42
2022-08-18T21:50:08.234Z,22.34
2022-08-18T21:52:38.993Z,22.31
2022-08-18T21:55:16.994Z,22.34
2022-08-18T21:57:52.181Z,22.29
2022-08-18T22:00:27.063Z,22.14
2022-08-18T22:03:12.737Z,22.16
2022-08-18T22:05:58.451Z,22.05
2022-08-18T22:08:30.125Z,22.06
2022-08-18T22:11:59.377Z,22.01
2022-08-18T22:14:35.695Z,21.91
2022-08-18T22:17:33.228Z,21.95
2022-08-18T22:20:34.877Z,21.87
2022-08-18T22:23:31.457Z,21.84
2022-08-18T22:26:07.578Z,21.94
2022-08-18T22:28:42.361Z,21.96
2022-08-18T22:31:10.705Z,22.10
2022-08-18T22:33:40.406Z,22.02
2022-08-18T22:36:08.663Z,21.97
2022-08-18T22:38:36.509Z,22.01
2022-08-18T22:41:04.356Z,21.94
2022-08-18T22:43:32.309Z,21.99
2022-08-18T22:46:01.880Z,21.98
2022-08-18T22:48:29.663Z,22.06
2022-08-18T22:50:59.030Z,21.94
2022-08-18T22:53:27.004Z,21.87
2022-08-18T22:55:55.994Z,21.90
2022-08-18T22:58:28.031Z,22.09
2022-08-18T23:01:05.384Z,22.02
2022-08-18T23:03:35.092Z,22.05
2022-08-18T23:06:11.869Z,21.95
2022-08-18T23:08:55.068Z,22.00
2022-08-18T23:11:24.115Z,21.91
2022-08-18T23:13:52.420Z,21.78
2022-08-18T23:16:31.756Z,21.85
2022-08-18T23:19:01.830Z,21.77
2022-08-18T23:21:34.519Z,21.73
2022-08-18T23:24:04.968Z,21.80
2022-08-18T23:29:03.118Z,21.70
2022-08-18T23:31:31.512Z,21.69
2022-08-18T23:34:00.666Z,21.91
2022-08-18T23:36:29.549Z,21.83
2022-08-18T23:38:58.851Z,21.82
2022-08-18T23:41:26.700Z,21.81
2022-08-18T23:43:54.553Z,21.72
2022-08-18T23:46:24.873Z,21.84
2022-08-18T23:48:53.873Z,21.82
2022-08-18T23:51:28.802Z,21.81
2022-08-18T23:54:00.088Z,21.73
2022-08-18T23:56:28.845Z,21.70
2022-08-18T23:58:57.559Z,21.68
